Time;durP1;ratioP1;P1;durP2;ratioP2;P2;SDS_P1;SDS_P2;PMS_P1;PMS_P2;Temp;Humidity;BMP_temperature;BMP_pressure;BME280_temperature;BME280_humidity;BME280_pressure;Samples;Min_cycle;Max_cycle;Signal;HPM_P1;HPM_P2
2022/03/25 00:01:07;;;;;;;18.92;13.77;;;13.70;58.70;;;;;;5103340;27;20031;-59
2022/03/25 00:03:33;;;;;;;18.13;14.10;;;13.60;58.60;;;;;;5104626;27;20043;-60
2022/03/25 00:05:58;;;;;;;16.95;13.55;;;13.60;58.80;;;;;;5101678;27;20482;-59
2022/03/25 00:08:24;;;;;;;18.05;14.55;;;13.60;58.90;;;;;;5088426;27;20030;-61
2022/03/25 00:10:49;;;;;;;21.08;15.65;;;13.60;59.00;;;;;;5083057;28;20031;-61
2022/03/25 00:13:15;;;;;;;21.08;14.70;;;13.50;59.00;;;;;;5106900;27;20040;-61
2022/03/25 00:15:41;;;;;;;21.60;15.38;;;13.50;59.00;;;;;;5102183;27;20055;-60
2022/03/25 00:18:06;;;;;;;20.08;14.15;;;13.50;59.70;;;;;;5104111;27;20061;-59
2022/03/25 00:20:32;;;;;;;19.50;15.50;;;13.40;59.20;;;;;;5085131;28;20027;-60
2022/03/25 00:22:57;;;;;;;18.00;15.77;;;13.40;59.20;;;;;;5064757;27;20177;-60
2022/03/25 00:25:23;;;;;;;19.75;15.70;;;13.40;59.90;;;;;;5083676;27;20157;-59
2022/03/25 00:27:48;;;;;;;18.73;15.73;;;13.30;59.20;;;;;;5083604;27;20139;-59
2022/03/25 00:30:14;;;;;;;19.98;14.90;;;13.30;59.40;;;;;;5109978;27;20046;-60
2022/03/25 00:32:40;;;;;;;21.88;15.02;;;13.30;59.50;;;;;;5121007;27;20120;-60
2022/03/25 00:35:06;;;;;;;21.52;16.23;;;13.20;59.50;;;;;;5119948;27;20094;-60
2022/03/25 00:37:32;;;;;;;19.98;14.85;;;13.20;59.60;;;;;;5102621;27;20724;-60
2022/03/25 00:39:58;;;;;;;19.60;14.90;;;13.20;59.60;;;;;;5122479;27;20117;-60
2022/03/25 00:42:24;;;;;;;21.15;15.40;;;13.10;59.60;;;;;;5120333;27;20118;-59
2022/03/25 00:44:50;;;;;;;17.63;14.88;;;13.10;59.70;;;;;;5121232;27;20062;-61
2022/03/25 00:47:15;;;;;;;19.13;14.18;;;13.10;59.90;;;;;;5100961;28;20055;-60
2022/03/25 00:49:42;;;;;;;21.02;15.43;;;13.10;59.90;;;;;;5119777;28;20104;-60
2022/03/25 00:52:08;;;;;;;20.13;15.50;;;13.00;60.00;;;;;;5102917;28;20029;-60
2022/03/25 00:54:34;;;;;;;16.35;14.02;;;13.00;59.90;;;;;;5120833;28;20059;-61
2022/03/25 00:56:59;;;;;;;18.05;14.98;;;13.00;60.00;;;;;;5120635;28;20051;-60
2022/03/25 00:59:25;;;;;;;17.50;14.52;;;13.00;59.90;;;;;;5121161;28;20027;-59
2022/03/25 01:01:50;;;;;;;17.80;14.20;;;13.00;60.00;;;;;;5085906;28;20498;-59
2022/03/25 01:04:16;;;;;;;18.02;14.50;;;12.90;59.90;;;;;;5120214;27;20423;-59
2022/03/25 01:06:42;;;;;;;18.90;14.20;;;12.90;60.00;;;;;;5102774;28;20034;-59
2022/03/25 01:09:08;;;;;;;19.50;14.18;;;12.90;60.10;;;;;;5120584;28;20127;-60
2022/03/25 01:11:35;;;;;;;17.88;13.93;;;12.90;60.90;;;;;;5120601;28;20134;-60
2022/03/25 01:14:01;;;;;;;18.27;12.60;;;12.80;60.30;;;;;;5085012;28;20115;-60
2022/03/25 01:16:27;;;;;;;15.65;13.35;;;12.80;60.30;;;;;;5122472;28;20050;-59
2022/03/25 01:18:52;;;;;;;16.70;13.02;;;12.80;60.40;;;;;;5100086;27;20031;-60
2022/03/25 01:21:18;;;;;;;17.60;13.05;;;12.70;60.50;;;;;;5100850;28;20563;-60
2022/03/25 01:23:45;;;;;;;17.20;12.98;;;12.70;60.80;;;;;;5121619;27;20410;-60
2022/03/25 01:26:10;;;;;;;16.20;13.07;;;12.70;60.90;;;;;;5085609;28;20030;-60
2022/03/25 01:28:36;;;;;;;17.48;12.75;;;12.70;61.00;;;;;;5119504;27;20023;-60
2022/03/25 01:31:02;;;;;;;17.35;13.27;;;12.70;61.20;;;;;;5104492;27;20047;-60
2022/03/25 01:33:28;;;;;;;16.65;13.70;;;12.60;61.30;;;;;;5088253;28;20020;-59
2022/03/25 01:35:54;;;;;;;17.30;12.98;;;12.60;61.50;;;;;;5100800;28;20044;-60
2022/03/25 01:38:21;;;;;;;15.95;12.60;;;12.60;61.60;;;;;;5083654;28;20628;-59
2022/03/25 01:40:46;;;;;;;15.82;12.75;;;12.60;61.70;;;;;;5086584;28;20023;-61
2022/03/25 01:43:12;;;;;;;21.13;12.88;;;12.50;61.70;;;;;;5074127;28;20036;-60
2022/03/25 01:45:38;;;;;;;15.65;12.57;;;12.50;61.70;;;;;;5079862;28;20428;-60
2022/03/25 01:48:08;;;;;;;18.48;13.10;;;12.30;61.70;;;;;;5101237;28;20107;-60
2022/03/25 01:50:33;;;;;;;19.25;12.57;;;12.40;61.70;;;;;;5085084;28;20414;-60
2022/03/25 01:52:59;;;;;;;16.23;12.75;;;12.40;61.80;;;;;;5094961;27;20074;-60
2022/03/25 01:55:26;;;;;;;14.05;12.25;;;12.40;61.90;;;;;;5099766;27;20039;-59
2022/03/25 01:57:57;;;;;;;15.77;12.43;;;12.40;61.90;;;;;;5086210;27;20016;-60
2022/03/25 02:00:23;;;;;;;15.63;12.75;;;12.30;61.90;;;;;;5083291;27;20374;-60
2022/03/25 02:02:49;;;;;;;16.80;12.50;;;12.30;62.00;;;;;;5091003;27;20491;-58
2022/03/25 02:05:15;;;;;;;17.77;12.43;;;12.30;62.10;;;;;;5091278;27;20049;-60
2022/03/25 02:07:41;;;;;;;15.98;11.90;;;12.20;62.00;;;;;;5107921;27;20118;-60
2022/03/25 02:10:07;;;;;;;15.30;12.35;;;12.20;62.00;;;;;;5077084;27;20102;-60
2022/03/25 02:12:35;;;;;;;17.60;13.05;;;12.20;62.10;;;;;;5111263;27;20497;-59
2022/03/25 02:15:01;;;;;;;16.80;13.57;;;12.20;62.00;;;;;;5085446;28;20058;-61
2022/03/25 02:17:26;;;;;;;18.27;13.75;;;12.20;62.10;;;;;;5084520;27;20055;-59
2022/03/25 02:19:52;;;;;;;16.95;13.95;;;12.10;62.20;;;;;;5106889;27;20027;-59
2022/03/25 02:22:17;;;;;;;17.42;13.70;;;12.10;62.30;;;;;;5098236;27;20270;-60
2022/03/25 02:24:43;;;;;;;17.88;13.60;;;12.00;62.30;;;;;;5102717;27;20476;-59
2022/03/25 02:27:09;;;;;;;16.80;13.63;;;12.00;62.40;;;;;;5102022;27;20066;-59
2022/03/25 02:29:34;;;;;;;16.77;13.40;;;12.00;62.50;;;;;;5083100;27;20383;-59
2022/03/25 02:32:00;;;;;;;16.05;12.90;;;11.90;62.50;;;;;;5090480;27;20045;-60
2022/03/25 02:34:25;;;;;;;15.18;13.38;;;11.90;62.50;;;;;;5101708;27;20153;-60
2022/03/25 02:36:51;;;;;;;16.27;13.02;;;11.90;62.50;;;;;;5101442;28;20099;-60
2022/03/25 02:39:17;;;;;;;21.45;13.52;;;11.90;62.50;;;;;;5100726;28;20024;-60
2022/03/25 02:41:43;;;;;;;18.65;13.13;;;11.90;62.50;;;;;;5086944;27;20153;-59
2022/03/25 02:44:08;;;;;;;14.75;12.82;;;11.80;62.60;;;;;;5104406;27;20575;-59
2022/03/25 02:46:34;;;;;;;15.38;12.98;;;11.80;62.70;;;;;;5112067;27;20028;-60
2022/03/25 02:49:01;;;;;;;19.60;12.93;;;11.80;63.50;;;;;;5104663;27;20015;-60
2022/03/25 02:51:26;;;;;;;16.98;14.10;;;11.80;62.80;;;;;;5070435;28;20016;-59
2022/03/25 02:53:52;;;;;;;21.33;13.65;;;11.80;62.90;;;;;;5094702;27;20027;-60
2022/03/25 02:56:20;;;;;;;17.48;12.98;;;11.80;62.90;;;;;;5079748;28;20656;-59
2022/03/25 02:58:45;;;;;;;20.08;13.35;;;11.70;62.90;;;;;;5086747;27;20087;-59
2022/03/25 03:01:12;;;;;;;17.77;13.05;;;11.70;62.90;;;;;;5081974;27;20293;-60
2022/03/25 03:03:38;;;;;;;17.20;12.75;;;11.70;62.90;;;;;;5079974;28;20039;-59
2022/03/25 03:06:03;;;;;;;20.80;13.65;;;11.60;63.00;;;;;;5109240;27;20043;-60
2022/03/25 03:08:29;;;;;;;20.08;12.60;;;11.70;63.10;;;;;;5104659;27;20538;-60
2022/03/25 03:10:54;;;;;;;17.92;12.77;;;11.70;63.10;;;;;;5085903;27;20520;-59
2022/03/25 03:13:20;;;;;;;23.33;13.68;;;11.60;63.10;;;;;;5106475;27;20390;-59
2022/03/25 03:15:47;;;;;;;21.25;14.25;;;11.60;63.20;;;;;;5100463;27;20035;-60
2022/03/25 03:18:12;;;;;;;19.60;14.38;;;11.60;63.40;;;;;;5077232;27;20202;-58
2022/03/25 03:20:38;;;;;;;24.70;14.73;;;11.50;63.30;;;;;;5104301;27;20100;-59
2022/03/25 03:23:05;;;;;;;23.20;14.43;;;11.50;63.40;;;;;;5107171;27;20039;-59
2022/03/25 03:25:31;;;;;;;30.60;15.02;;;11.50;63.50;;;;;;5079534;27;20026;-60
2022/03/25 03:27:56;;;;;;;29.50;14.52;;;11.50;63.60;;;;;;5100435;27;20019;-59
2022/03/25 03:30:22;;;;;;;27.88;14.55;;;11.40;63.60;;;;;;5109584;27;20468;-59
2022/03/25 03:32:48;;;;;;;27.02;13.93;;;11.40;63.60;;;;;;5091332;27;20309;-60
2022/03/25 03:35:14;;;;;;;23.05;14.10;;;11.40;63.60;;;;;;5106774;27;20355;-59
2022/03/25 03:37:43;;;;;;;23.00;14.13;;;11.40;63.80;;;;;;5104165;27;20238;-59
2022/03/25 03:40:10;;;;;;;23.92;13.35;;;11.40;63.90;;;;;;5086165;28;20024;-60
2022/03/25 03:42:36;;;;;;;23.38;14.43;;;11.30;63.80;;;;;;5088504;27;20050;-60
2022/03/25 03:45:02;;;;;;;25.23;14.15;;;11.30;63.90;;;;;;5103936;27;20039;-60
2022/03/25 03:47:27;;;;;;;20.27;14.55;;;11.30;63.90;;;;;;5072936;27;20090;-58
2022/03/25 03:49:53;;;;;;;24.20;13.65;;;11.20;64.00;;;;;;5104396;27;20108;-60
2022/03/25 03:52:18;;;;;;;22.75;13.95;;;11.30;64.10;;;;;;5098125;27;20091;-59
2022/03/25 03:54:44;;;;;;;19.45;13.15;;;11.30;64.30;;;;;;5106349;27;20424;-60
2022/03/25 03:57:09;;;;;;;27.10;13.75;;;11.30;64.20;;;;;;5099296;27;20043;-59
2022/03/25 03:59:35;;;;;;;28.40;13.32;;;11.20;64.20;;;;;;5107589;27;20048;-59
2022/03/25 04:02:00;;;;;;;20.63;13.75;;;11.20;64.20;;;;;;5100445;27;20020;-60
2022/03/25 04:04:26;;;;;;;25.95;13.57;;;11.20;64.40;;;;;;5091665;27;20076;-59
2022/03/25 04:06:51;;;;;;;22.33;13.32;;;11.20;64.40;;;;;;5102504;27;20103;-61
2022/03/25 04:09:17;;;;;;;17.90;13.30;;;11.20;64.50;;;;;;5090246;27;20168;-59
2022/03/25 04:11:42;;;;;;;21.58;13.95;;;11.10;64.50;;;;;;5085894;27;20122;-59
2022/03/25 04:14:08;;;;;;;17.85;12.85;;;11.10;64.50;;;;;;5070897;28;20466;-59
2022/03/25 04:16:33;;;;;;;20.45;13.68;;;11.10;64.60;;;;;;5085155;28;20028;-60
2022/03/25 04:18:59;;;;;;;18.75;13.43;;;11.10;64.70;;;;;;5102553;27;20020;-59
2022/03/25 04:21:24;;;;;;;20.30;14.15;;;11.10;64.80;;;;;;5100345;27;20588;-58
2022/03/25 04:23:50;;;;;;;18.65;13.73;;;11.00;64.70;;;;;;5102729;27;20465;-59
2022/03/25 04:26:16;;;;;;;20.58;13.65;;;11.00;65.60;;;;;;5080970;28;20092;-60
2022/03/25 04:28:41;;;;;;;21.23;14.07;;;11.00;64.90;;;;;;5074478;28;20104;-59
2022/03/25 04:31:07;;;;;;;16.38;13.18;;;11.00;64.80;;;;;;5097457;28;20052;-59
2022/03/25 04:33:34;;;;;;;23.33;14.50;;;11.00;64.90;;;;;;5080807;27;20046;-59
2022/03/25 04:36:02;;;;;;;19.98;13.48;;;11.00;64.80;;;;;;5086450;27;20463;-59
2022/03/25 04:38:27;;;;;;;27.45;13.82;;;11.00;64.80;;;;;;5081741;27;20537;-59
2022/03/25 04:40:53;;;;;;;30.85;14.80;;;11.00;64.80;;;;;;5103351;28;20042;-60
2022/03/25 04:43:18;;;;;;;26.73;12.40;;;11.00;64.80;;;;;;5099424;27;20023;-59
2022/03/25 04:45:44;;;;;;;26.85;14.93;;;11.00;64.80;;;;;;5099848;28;20252;-59
2022/03/25 04:48:11;;;;;;;30.40;13.80;;;10.90;64.80;;;;;;5063861;28;20144;-60
2022/03/25 04:50:37;;;;;;;28.13;14.70;;;10.90;64.70;;;;;;5080413;28;20028;-59
2022/03/25 04:53:02;;;;;;;24.08;14.25;;;10.90;64.70;;;;;;5079391;28;20043;-59
2022/03/25 04:55:28;;;;;;;21.90;14.93;;;10.90;64.70;;;;;;5106728;28;20054;-59
2022/03/25 04:57:53;;;;;;;24.65;13.68;;;10.90;64.80;;;;;;5099878;28;20398;-59
2022/03/25 05:00:19;;;;;;;25.27;14.85;;;10.90;64.90;;;;;;5085923;28;20462;-59
2022/03/25 05:02:45;;;;;;;16.77;13.57;;;10.80;64.90;;;;;;5103412;27;20097;-59
2022/03/25 05:05:11;;;;;;;24.65;14.32;;;10.80;65.10;;;;;;5084261;28;20592;-59
2022/03/25 05:07:41;;;;;;;28.40;14.43;;;10.80;65.10;;;;;;5082831;28;20028;-58
2022/03/25 05:10:07;;;;;;;27.38;14.48;;;10.70;65.10;;;;;;5089955;27;20047;-60
2022/03/25 05:12:32;;;;;;;23.55;13.93;;;10.70;65.30;;;;;;5103719;27;20527;-59
2022/03/25 05:14:58;;;;;;;18.85;13.80;;;10.60;65.40;;;;;;5105198;27;20046;-60
2022/03/25 05:17:24;;;;;;;27.83;14.05;;;10.70;65.30;;;;;;5086204;27;20028;-60
2022/03/25 05:19:49;;;;;;;25.88;14.10;;;10.70;65.30;;;;;;5082125;27;20040;-60
2022/03/25 05:22:15;;;;;;;20.30;13.43;;;10.60;65.20;;;;;;5105938;27;20097;-59
2022/03/25 05:24:40;;;;;;;25.23;14.27;;;10.60;65.20;;;;;;5082991;27;20406;-60
2022/03/25 05:27:06;;;;;;;20.70;13.75;;;10.60;65.30;;;;;;5081876;27;20051;-59
2022/03/25 05:29:32;;;;;;;23.02;13.52;;;10.60;65.40;;;;;;5104032;27;20074;-59
2022/03/25 05:31:57;;;;;;;24.00;12.98;;;10.60;65.40;;;;;;5103352;27;20035;-60
2022/03/25 05:34:23;;;;;;;49.55;15.82;;;10.50;65.40;;;;;;5101315;27;20057;-59
2022/03/25 05:36:48;;;;;;;42.70;14.77;;;10.50;65.50;;;;;;5104966;27;20452;-59
2022/03/25 05:39:15;;;;;;;35.17;15.10;;;10.50;65.50;;;;;;5121661;27;20434;-59
2022/03/25 05:41:43;;;;;;;32.78;14.15;;;10.50;65.60;;;;;;5103900;27;20026;-58
2022/03/25 05:44:09;;;;;;;38.78;14.43;;;10.50;65.70;;;;;;5104144;27;20044;-60
2022/03/25 05:46:35;;;;;;;27.77;14.57;;;10.50;65.60;;;;;;5105992;27;20421;-60
2022/03/25 05:49:01;;;;;;;27.98;14.13;;;10.40;65.70;;;;;;5105593;27;20024;-58
2022/03/25 05:51:26;;;;;;;29.67;14.35;;;10.40;65.70;;;;;;5124769;27;20117;-60
2022/03/25 05:53:52;;;;;;;38.60;15.20;;;10.40;65.90;;;;;;5104262;27;20019;-60
2022/03/25 05:56:17;;;;;;;49.35;14.23;;;10.40;65.80;;;;;;5120471;27;20122;-59
2022/03/25 05:58:43;;;;;;;74.40;17.48;;;10.40;65.90;;;;;;5104906;27;20142;-60
2022/03/25 06:01:08;;;;;;;58.33;16.17;;;10.40;65.80;;;;;;5123447;27;20033;-59
2022/03/25 06:03:34;;;;;;;102.68;19.23;;;10.40;65.80;;;;;;5124677;27;20038;-60
2022/03/25 06:06:03;;;;;;;194.85;24.83;;;10.40;65.90;;;;;;5124804;27;20178;-58
2022/03/25 06:08:30;;;;;;;138.80;21.88;;;10.40;66.60;;;;;;5102762;27;20047;-59
2022/03/25 06:10:55;;;;;;;83.28;18.45;;;10.40;65.90;;;;;;5119863;27;20045;-59
2022/03/25 06:13:21;;;;;;;77.55;17.98;;;10.30;66.00;;;;;;5118226;27;20020;-59
2022/03/25 06:15:47;;;;;;;94.90;18.42;;;10.30;66.00;;;;;;5102663;27;20095;-59
2022/03/25 06:18:12;;;;;;;71.38;17.15;;;10.30;66.20;;;;;;5088668;27;20035;-59
2022/03/25 06:20:38;;;;;;;83.82;17.08;;;10.30;66.30;;;;;;5104737;27;20042;-59
2022/03/25 06:23:04;;;;;;;75.18;17.13;;;10.30;66.20;;;;;;5122355;27;20078;-59
2022/03/25 06:25:29;;;;;;;60.13;17.05;;;10.30;66.20;;;;;;5104025;27;20450;-60
2022/03/25 06:27:59;;;;;;;64.38;18.00;;;10.30;66.10;;;;;;5123638;27;20240;-59
2022/03/25 06:30:34;;;;;;;71.50;17.90;;;10.30;66.30;;;;;;5104701;27;20076;-59
2022/03/25 06:33:00;;;;;;;55.92;16.60;;;10.30;66.30;;;;;;5070641;27;20266;-60
2022/03/25 06:35:26;;;;;;;51.08;15.55;;;10.30;66.40;;;;;;5085743;27;20458;-59
2022/03/25 06:37:55;;;;;;;43.00;15.40;;;10.30;67.20;;;;;;5103566;27;20171;-59
2022/03/25 06:40:21;;;;;;;50.80;16.17;;;10.30;66.60;;;;;;5087576;27;20515;-59
2022/03/25 06:42:47;;;;;;;53.20;16.05;;;10.30;66.60;;;;;;5124096;27;20625;-59
2022/03/25 06:45:14;;;;;;;43.30;15.68;;;10.30;66.40;;;;;;5087986;27;20030;-60
2022/03/25 06:47:40;;;;;;;44.80;15.27;;;10.30;66.40;;;;;;5104261;27;20493;-59
2022/03/25 06:50:06;;;;;;;50.40;16.90;;;10.30;66.40;;;;;;5103103;27;20088;-60
2022/03/25 06:52:32;;;;;;;42.05;16.10;;;10.30;66.50;;;;;;5104516;27;20495;-58
2022/03/25 06:54:58;;;;;;;56.05;16.30;;;10.30;66.70;;;;;;5103197;27;20197;-60
2022/03/25 06:57:24;;;;;;;55.38;16.38;;;10.30;66.80;;;;;;5104291;27;20114;-59
2022/03/25 06:59:49;;;;;;;43.00;16.83;;;10.30;66.90;;;;;;5099130;27;20038;-64
2022/03/25 07:02:15;;;;;;;40.22;16.90;;;10.30;66.90;;;;;;5118455;27;20027;-62
2022/03/25 07:04:41;;;;;;;55.72;16.55;;;10.30;67.70;;;;;;5099861;27;20030;-61
2022/03/25 07:07:07;;;;;;;51.92;16.67;;;10.30;66.90;;;;;;5084923;27;21108;-62
2022/03/25 07:09:32;;;;;;;37.53;16.27;;;10.30;66.80;;;;;;5100044;27;20074;-62
2022/03/25 07:11:59;;;;;;;36.03;14.68;;;10.30;66.80;;;;;;5118963;27;20031;-61
2022/03/25 07:14:25;;;;;;;39.60;15.50;;;10.30;66.80;;;;;;5084667;27;20071;-62
2022/03/25 07:16:50;;;;;;;41.38;15.93;;;10.20;66.80;;;;;;5102882;27;20043;-62
2022/03/25 07:19:16;;;;;;;38.10;15.98;;;10.20;66.90;;;;;;5099890;27;20094;-62
2022/03/25 07:21:41;;;;;;;38.42;15.65;;;10.20;66.80;;;;;;5104032;27;20034;-59
2022/03/25 07:24:07;;;;;;;30.92;15.55;;;10.20;66.80;;;;;;5122003;27;20415;-59
2022/03/25 07:26:32;;;;;;;34.20;16.15;;;10.30;66.90;;;;;;5091370;27;20058;-60
2022/03/25 07:28:58;;;;;;;35.85;16.13;;;10.20;66.80;;;;;;5121062;27;20077;-60
2022/03/25 07:31:28;;;;;;;34.17;15.70;;;10.30;66.90;;;;;;5085349;28;20085;-60
2022/03/25 07:33:57;;;;;;;41.00;15.32;;;10.30;66.90;;;;;;5080386;28;20082;-58
2022/03/25 07:36:22;;;;;;;39.20;15.95;;;10.30;66.90;;;;;;5083051;28;20636;-59
2022/03/25 07:38:48;;;;;;;37.50;14.93;;;10.30;66.90;;;;;;5077857;27;20047;-59
2022/03/25 07:41:13;;;;;;;35.65;15.68;;;10.30;67.00;;;;;;5067233;27;20059;-59
2022/03/25 07:43:39;;;;;;;29.85;15.98;;;10.30;66.90;;;;;;5102405;27;20092;-58
2022/03/25 07:46:05;;;;;;;31.90;16.40;;;10.30;66.90;;;;;;5081227;28;20032;-59
2022/03/25 07:48:31;;;;;;;38.25;16.17;;;10.30;66.90;;;;;;5070874;28;20035;-58
2022/03/25 07:50:56;;;;;;;32.03;16.67;;;10.30;66.90;;;;;;5099552;28;20031;-59
2022/03/25 07:53:22;;;;;;;44.72;17.15;;;10.40;66.90;;;;;;5080337;28;20061;-59
2022/03/25 07:55:50;;;;;;;106.53;21.58;;;10.40;66.90;;;;;;5052354;28;20118;-60
2022/03/25 07:58:19;;;;;;;77.18;19.52;;;10.40;67.00;;;;;;5080611;28;20096;-60
2022/03/25 08:00:48;;;;;;;76.90;19.92;;;10.40;67.00;;;;;;5061062;28;20118;-59
2022/03/25 08:03:14;;;;;;;72.03;19.58;;;10.40;67.20;;;;;;5079936;28;20233;-59
2022/03/25 08:05:39;;;;;;;59.58;18.67;;;10.40;67.20;;;;;;5084208;28;20072;-59
2022/03/25 08:08:05;;;;;;;229.25;35.55;;;10.40;67.30;;;;;;5080332;28;20024;-59
2022/03/25 08:10:32;;;;;;;89.88;22.10;;;10.40;67.20;;;;;;5098713;28;20042;-60
2022/03/25 08:12:58;;;;;;;82.32;20.95;;;10.40;67.20;;;;;;5099987;28;20343;-59
2022/03/25 08:15:27;;;;;;;71.05;19.88;;;10.40;67.10;;;;;;5076765;27;20822;-58
2022/03/25 08:18:01;;;;;;;66.15;20.15;;;10.50;67.10;;;;;;5066321;28;20064;-59
2022/03/25 08:20:29;;;;;;;74.53;21.45;;;10.50;67.10;;;;;;5077912;28;20436;-60
2022/03/25 08:22:58;;;;;;;61.38;20.60;;;10.50;67.10;;;;;;5079249;28;20047;-59
2022/03/25 08:28:08;;;;;;;75.85;19.75;;;10.50;67.20;;;;;;5078443;28;20058;-59
2022/03/25 08:30:34;;;;;;;82.68;21.85;;;10.50;67.20;;;;;;5078019;27;20149;-59
2022/03/25 08:33:03;;;;;;;78.18;21.83;;;10.50;67.70;;;;;;5060409;27;20056;-62
2022/03/25 08:35:28;;;;;;;88.60;24.40;;;10.50;67.30;;;;;;5084533;27;20027;-62
2022/03/25 08:37:54;;;;;;;126.20;25.83;;;10.60;67.50;;;;;;5095656;28;20027;-61
2022/03/25 08:40:24;;;;;;;99.20;23.23;;;10.60;67.80;;;;;;5102107;27;20092;-62
2022/03/25 08:42:49;;;;;;;126.75;25.70;;;10.70;68.70;;;;;;5095098;27;20054;-62
2022/03/25 08:45:16;;;;;;;158.38;28.38;;;10.70;68.70;;;;;;5097178;27;20146;-62
2022/03/25 08:47:42;;;;;;;125.55;24.63;;;10.70;68.60;;;;;;5093857;28;20070;-61
2022/03/25 08:50:09;;;;;;;123.28;25.85;;;10.70;68.60;;;;;;5113045;27;20122;-62
2022/03/25 08:52:36;;;;;;;151.43;29.33;;;10.70;68.80;;;;;;5091258;27;20479;-62
2022/03/25 08:55:01;;;;;;;148.10;30.45;;;10.80;68.90;;;;;;5115964;27;21050;-62
2022/03/25 08:57:27;;;;;;;125.65;27.77;;;10.80;68.80;;;;;;5098107;28;20031;-63
2022/03/25 08:59:52;;;;;;;136.25;27.90;;;10.80;68.70;;;;;;5097683;27;20391;-60
2022/03/25 09:02:18;;;;;;;123.35;28.35;;;10.80;68.80;;;;;;5091838;27;20027;-60
2022/03/25 09:04:46;;;;;;;129.75;27.48;;;10.80;69.00;;;;;;5112278;27;20036;-58
2022/03/25 09:07:12;;;;;;;116.93;25.67;;;10.90;69.10;;;;;;5116790;27;20030;-59
2022/03/25 09:09:37;;;;;;;101.90;26.10;;;10.90;69.00;;;;;;5089141;27;21082;-59
2022/03/25 09:12:03;;;;;;;90.82;24.55;;;10.90;68.70;;;;;;5083721;27;20218;-60
2022/03/25 09:14:29;;;;;;;91.30;24.13;;;10.90;68.30;;;;;;5108652;27;20049;-61
2022/03/25 09:16:54;;;;;;;114.07;24.05;;;11.00;68.40;;;;;;5089356;27;20015;-61
2022/03/25 09:19:20;;;;;;;135.25;29.00;;;11.00;68.70;;;;;;5111928;27;20486;-61
2022/03/25 09:21:45;;;;;;;106.72;26.05;;;11.10;68.90;;;;;;5087106;28;20498;-62
2022/03/25 09:24:11;;;;;;;114.35;26.48;;;11.10;69.00;;;;;;5087914;27;20039;-62
2022/03/25 09:26:37;;;;;;;117.72;26.45;;;11.10;69.10;;;;;;5090261;28;20069;-62
2022/03/25 09:29:02;;;;;;;117.32;26.40;;;11.10;69.00;;;;;;5096554;28;20085;-62
2022/03/25 09:31:28;;;;;;;126.15;28.70;;;11.20;69.00;;;;;;5093392;27;20043;-62
2022/03/25 09:35:08;;;;;;;129.35;28.40;;;11.20;68.90;;;;;;5107632;27;20058;-63
2022/03/25 09:36:39;;;;;;;137.32;28.40;;;11.20;68.60;;;;;;5109609;27;20058;-62
2022/03/25 09:39:04;;;;;;;129.00;29.13;;;11.30;68.60;;;;;;5116232;27;20383;-63
2022/03/25 09:41:30;;;;;;;142.13;29.17;;;11.30;68.60;;;;;;5119302;27;20662;-62
2022/03/25 09:43:56;;;;;;;145.63;28.73;;;11.30;68.70;;;;;;5084196;28;20319;-62
2022/03/25 09:46:21;;;;;;;124.53;29.30;;;11.40;68.80;;;;;;5102075;27;20105;-62
2022/03/25 09:48:47;;;;;;;128.98;27.60;;;11.40;69.30;;;;;;5094308;27;20028;-59
2022/03/25 09:51:13;;;;;;;100.82;24.55;;;11.40;68.90;;;;;;5113981;27;20118;-62
2022/03/25 09:53:38;;;;;;;92.75;25.05;;;11.50;68.30;;;;;;5119954;27;20022;-62
2022/03/25 09:56:04;;;;;;;116.70;26.60;;;11.50;68.00;;;;;;5098329;27;20122;-63
2022/03/25 09:58:29;;;;;;;76.00;23.85;;;11.50;68.20;;;;;;5087652;27;20063;-63
2022/03/25 10:00:55;;;;;;;106.13;25.25;;;11.60;68.10;;;;;;5087060;27;20044;-63
2022/03/25 10:03:37;;;;;;;91.65;24.52;;;11.60;67.80;;;;;;5120632;27;20142;-62
2022/03/25 10:06:04;;;;;;;113.40;26.90;;;11.70;67.60;;;;;;5101468;27;20023;-60
2022/03/25 10:08:31;;;;;;;138.63;27.73;;;11.70;68.10;;;;;;5081571;27;20816;-59
2022/03/25 10:11:16;;;;;;;105.25;27.15;;;11.70;68.30;;;;;;5076560;27;20046;-59
2022/03/25 10:13:41;;;;;;;158.38;29.20;;;11.80;68.50;;;;;;5083280;27;20019;-59
2022/03/25 10:16:30;;;;;;;82.35;24.33;;;11.80;68.00;;;;;;5114199;27;20039;-59
2022/03/25 10:18:56;;;;;;;75.10;21.70;;;11.80;67.00;;;;;;5113605;27;20023;-59
2022/03/25 10:21:23;;;;;;;92.30;23.73;;;11.90;66.20;;;;;;5068836;27;20041;-59
2022/03/25 10:23:48;;;;;;;127.00;28.20;;;11.90;66.40;;;;;;5100514;27;20035;-63
2022/03/25 10:26:14;;;;;;;88.40;24.13;;;12.00;67.80;;;;;;5099538;27;20041;-62
2022/03/25 10:28:44;;;;;;;94.07;23.60;;;12.00;67.20;;;;;;5101076;27;20042;-62
2022/03/25 10:31:15;;;;;;;95.68;24.02;;;12.10;66.20;;;;;;5101759;27;20039;-62
2022/03/25 10:33:45;;;;;;;85.55;23.85;;;12.10;66.40;;;;;;5095266;27;20039;-62
2022/03/25 10:36:11;;;;;;;89.90;24.40;;;12.20;66.30;;;;;;5104729;27;20359;-62
2022/03/25 10:39:16;;;;;;;126.75;28.17;;;12.20;66.20;;;;;;5103507;27;20061;-63
2022/03/25 10:41:42;;;;;;;118.10;25.77;;;12.30;66.60;;;;;;5093971;27;20038;-60
2022/03/25 10:44:09;;;;;;;112.72;26.58;;;12.30;66.10;;;;;;5064701;27;20031;-60
2022/03/25 10:46:43;;;;;;;126.63;26.83;;;12.30;67.00;;;;;;5094208;27;20080;-59
2022/03/25 10:49:13;;;;;;;95.35;25.35;;;12.40;66.80;;;;;;5111185;27;20027;-60
2022/03/25 10:51:52;;;;;;;134.88;27.30;;;12.50;66.40;;;;;;5096007;27;20042;-59
2022/03/25 10:54:17;;;;;;;183.80;31.45;;;12.50;66.50;;;;;;5096554;27;20035;-59
2022/03/25 10:56:47;;;;;;;195.73;35.35;;;12.50;67.20;;;;;;5095079;27;20035;-59
2022/03/25 10:59:27;;;;;;;171.90;32.25;;;12.60;67.30;;;;;;5111634;27;20070;-59
2022/03/25 11:01:54;;;;;;;238.45;35.20;;;12.60;67.20;;;;;;5114659;27;20015;-60
2022/03/25 11:04:20;;;;;;;183.88;31.73;;;12.70;67.10;;;;;;5100358;27;20042;-60
2022/03/25 11:06:46;;;;;;;150.07;30.63;;;12.70;67.00;;;;;;5116427;27;20114;-60
2022/03/25 11:09:13;;;;;;;168.55;30.27;;;12.80;67.00;;;;;;5117245;27;20685;-60
2022/03/25 11:11:40;;;;;;;148.85;29.90;;;12.80;67.00;;;;;;5076642;27;20159;-59
2022/03/25 11:14:06;;;;;;;153.68;32.10;;;12.90;66.90;;;;;;5077526;27;20664;-60
2022/03/25 11:16:32;;;;;;;195.15;34.40;;;13.00;67.00;;;;;;5093669;27;20099;-60
2022/03/25 11:18:58;;;;;;;150.57;31.73;;;13.00;67.10;;;;;;5096395;27;20038;-60
2022/03/25 11:21:23;;;;;;;158.35;29.05;;;13.10;66.90;;;;;;5077180;27;20265;-59
2022/03/25 11:23:51;;;;;;;145.10;31.42;;;13.10;66.90;;;;;;5096316;27;20035;-59
2022/03/25 11:26:19;;;;;;;150.65;30.40;;;13.20;67.30;;;;;;5088664;27;20064;-60
2022/03/25 11:28:45;;;;;;;155.68;29.40;;;13.20;66.90;;;;;;5075727;27;20423;-60
2022/03/25 11:31:10;;;;;;;149.23;28.83;;;13.30;66.80;;;;;;5096846;27;20099;-60
2022/03/25 11:34:11;;;;;;;139.63;30.75;;;13.30;66.60;;;;;;5095656;27;20027;-60
2022/03/25 11:36:40;;;;;;;243.45;37.70;;;13.40;66.50;;;;;;5115302;27;20079;-60
2022/03/25 11:39:24;;;;;;;142.50;29.83;;;13.40;66.40;;;;;;5094711;27;20059;-60
2022/03/25 11:41:50;;;;;;;124.25;28.50;;;13.50;66.20;;;;;;5092963;27;20053;-60
2022/03/25 11:44:15;;;;;;;146.02;30.70;;;13.50;66.60;;;;;;5104787;27;20674;-59
2022/03/25 11:46:59;;;;;;;155.38;30.70;;;13.60;66.10;;;;;;5113929;27;20470;-59
2022/03/25 11:49:32;;;;;;;96.50;25.83;;;13.70;65.90;;;;;;5113281;27;20015;-60
2022/03/25 11:52:28;;;;;;;134.20;28.35;;;13.70;65.40;;;;;;5107837;27;21365;-60
2022/03/25 11:54:58;;;;;;;108.60;27.80;;;13.80;65.20;;;;;;5097465;27;20030;-60
2022/03/25 11:57:33;;;;;;;124.35;26.85;;;13.90;65.30;;;;;;5084810;27;20055;-60
2022/03/25 12:00:11;;;;;;;111.85;26.88;;;13.90;64.60;;;;;;5079613;27;20112;-60
2022/03/25 12:02:37;;;;;;;91.10;25.05;;;14.00;64.00;;;;;;5094369;27;20157;-60
2022/03/25 12:05:05;;;;;;;96.88;25.52;;;14.00;63.80;;;;;;5071921;27;20047;-60
2022/03/25 12:07:31;;;;;;;97.57;25.13;;;14.10;63.60;;;;;;5096014;27;20460;-60
2022/03/25 12:09:56;;;;;;;133.75;31.83;;;14.10;62.90;;;;;;5059211;27;20138;-61
2022/03/25 12:12:51;;;;;;;113.20;27.40;;;14.20;63.00;;;;;;5088669;27;20584;-60
2022/03/25 12:15:16;;;;;;;122.65;25.92;;;14.20;63.40;;;;;;5109195;27;20088;-59
2022/03/25 12:17:42;;;;;;;110.75;26.38;;;14.30;62.70;;;;;;5112379;27;20065;-60
2022/03/25 12:20:09;;;;;;;108.40;23.40;;;14.30;62.50;;;;;;5113341;27;20079;-60
2022/03/25 12:22:37;;;;;;;115.43;24.65;;;14.40;62.40;;;;;;5097505;27;20031;-59
2022/03/25 12:25:10;;;;;;;106.50;24.20;;;14.50;63.20;;;;;;5095953;27;20118;-60
2022/03/25 12:27:37;;;;;;;97.18;25.35;;;14.50;61.70;;;;;;5112883;27;20161;-60